Airport Name : St Paul Island

Other Name : St Paul Island

ICAO : PASN

IATA : SNP

FAA : PSNP

Latitude : 57.167333

Longitude : -170.220444

Country : United States

Local Date and Time : 23 Sep 2021 02:20

 

TAF (Terminal Aerodrome Forecast)

PASN 230539Z 2306/2406 36016G23KT P6SM FEW030 BKN050 FM231800 36011KT P6SM BKN050

 

METAR (METeorological Aerodrome Report)

PASN 231053Z AUTO 01011KT 10SM FEW030 SCT042 04/00 A3005 RMK AO2 SLP178 T00390000 TSNO

PASN 230953Z AUTO 01010KT 10SM SCT025 BKN046 04/01 A3005 RMK AO2 SLP177 T00390006 TSNO

PASN 230853Z AUTO 01012KT 10SM SCT033 SCT042 04/M01 A3005 RMK AO2 SLP175 60000 T00391006 400891006 50005 TSNO

PASN 230753Z AUTO 36014G23KT 10SM FEW031 BKN047 04/00 A3006 RMK AO2 SLP178 T00390000 TSNO

To Charter a Jet Click here.